createdAt,value
2016-03-08T00:01:57.737Z,1004.86
2016-03-08T00:05:07.589Z,1004.92
2016-03-08T00:08:18.910Z,1005.02
2016-03-08T00:11:27.996Z,1004.96
2016-03-08T00:14:41.085Z,1005
2016-03-08T00:17:43.640Z,1005.1
2016-03-08T00:20:53.038Z,1005.08
2016-03-08T00:24:03.906Z,1005.12
2016-03-08T00:27:15.461Z,1005.3
2016-03-08T00:30:26.765Z,1005.28
2016-03-08T00:33:41.901Z,1005.28
2016-03-08T00:36:44.316Z,1005.38
2016-03-08T00:39:55.574Z,1005.24
2016-03-08T00:43:05.675Z,1005.28
2016-03-08T00:46:16.996Z,1005.34
2016-03-08T00:49:25.379Z,1005.28
2016-03-08T00:52:37.343Z,1005.3
2016-03-08T00:55:43.695Z,1005.24
2016-03-08T00:58:46.204Z,1005.46
2016-03-08T01:01:54.461Z,1005.44
2016-03-08T01:05:05.938Z,1005.44
2016-03-08T01:08:14.774Z,1005.38
2016-03-08T01:11:22.622Z,1005.42
2016-03-08T01:14:37.760Z,1005.46
2016-03-08T01:17:44.225Z,1005.56
2016-03-08T01:20:46.506Z,1005.68
2016-03-08T01:23:57.227Z,1005.6
2016-03-08T01:27:07.296Z,1005.62
2016-03-08T01:30:18.676Z,1005.7
2016-03-08T01:33:27.371Z,1005.44
2016-03-08T01:36:42.850Z,1005.42
2016-03-08T01:39:45.312Z,1005.7
2016-03-08T01:42:53.615Z,1005.6
2016-03-08T01:46:05.078Z,1005.62
2016-03-08T01:49:15.241Z,1005.5
2016-03-08T01:52:27.530Z,1005.52
2016-03-08T01:55:42.901Z,1005.54
2016-03-08T01:58:45.425Z,1005.58
2016-03-08T02:01:54.495Z,1005.64
2016-03-08T02:05:05.941Z,1005.54
2016-03-08T02:08:15.932Z,1005.66
2016-03-08T02:11:23.362Z,1005.62
2016-03-08T02:14:38.546Z,1005.64
2016-03-08T02:17:45.023Z,1005.5
2016-03-08T02:20:47.436Z,1005.68
2016-03-08T02:23:58.742Z,1005.68
2016-03-08T02:27:07.391Z,1005.72
2016-03-08T02:30:18.804Z,1005.76
2016-03-08T02:33:28.500Z,1005.66
2016-03-08T02:36:43.918Z,1005.62
2016-03-08T02:39:46.440Z,1005.68
2016-03-08T02:42:58.090Z,1005.68
2016-03-08T02:46:09.581Z,1005.72
2016-03-08T02:49:17.653Z,1005.74
2016-03-08T02:52:26.380Z,1005.88
2016-03-08T02:55:41.827Z,1005.72
2016-03-08T02:58:44.241Z,1005.74
2016-03-08T03:01:55.594Z,1005.9
2016-03-08T03:05:04.555Z,1005.78
2016-03-08T03:08:15.891Z,1005.72
2016-03-08T03:11:26.696Z,1005.8
2016-03-08T03:14:42.128Z,1005.92
2016-03-08T03:17:44.575Z,1005.96
2016-03-08T03:20:54.801Z,1005.88
2016-03-08T03:24:07.309Z,1005.96
2016-03-08T03:27:15.567Z,1005.88
2016-03-08T03:30:27.044Z,1005.96
2016-03-08T03:33:42.399Z,1005.94
2016-03-08T03:36:44.891Z,1005.88
2016-03-08T03:39:53.712Z,1005.98
2016-03-08T03:43:04.688Z,1005.94
2016-03-08T03:46:13.634Z,1005.88
2016-03-08T03:49:22.767Z,1006
2016-03-08T03:52:31.635Z,1006
2016-03-08T03:55:47.833Z,1005.96
2016-03-08T03:58:49.294Z,1006.06
2016-03-08T04:02:00.850Z,1006.02
2016-03-08T04:05:12.154Z,1006.12
2016-03-08T04:08:23.421Z,1006.22
2016-03-08T04:11:38.807Z,1006.3
2016-03-08T04:14:45.285Z,1006.28
2016-03-08T04:17:47.761Z,1006.16
2016-03-08T04:20:56.894Z,1006.12
2016-03-08T04:24:05.027Z,1006.28
2016-03-08T04:27:16.426Z,1006.36
2016-03-08T04:30:26.387Z,1006.34
2016-03-08T04:33:41.804Z,1006.32
2016-03-08T04:36:44.343Z,1006.42
2016-03-08T04:39:55.632Z,1006.44
2016-03-08T04:43:07.251Z,1006.5
2016-03-08T04:46:18.681Z,1006.55
2016-03-08T04:49:27.564Z,1006.5
2016-03-08T04:52:42.824Z,1006.5
2016-03-08T04:55:45.426Z,1006.5
2016-03-08T04:58:55.027Z,1006.5
2016-03-08T05:02:05.645Z,1006.61
2016-03-08T05:05:17.246Z,1006.61
2016-03-08T05:08:25.490Z,1006.71
2016-03-08T05:11:34.013Z,1006.77
2016-03-08T05:14:47.430Z,1006.63
2016-03-08T05:17:49.970Z,1006.67
2016-03-08T05:20:58.508Z,1006.69
2016-03-08T05:24:08.314Z,1006.71
2016-03-08T05:27:19.806Z,1006.69
2016-03-08T05:30:31.907Z,1006.71
2016-03-08T05:33:45.900Z,1006.73
2016-03-08T05:36:48.401Z,1006.87
2016-03-08T05:39:59.801Z,1006.71
2016-03-08T05:43:11.404Z,1007.07
2016-03-08T05:46:22.850Z,1006.95
2016-03-08T05:49:31.833Z,1007.01
2016-03-08T05:52:47.094Z,1007.01
2016-03-08T05:55:49.665Z,1007.01
2016-03-08T05:58:59.751Z,1007.21
2016-03-08T06:02:09.680Z,1007.03
2016-03-08T06:05:21.126Z,1007.15
2016-03-08T06:08:32.842Z,1007.13
2016-03-08T06:11:45.916Z,1007.19
2016-03-08T06:14:48.564Z,1007.27
2016-03-08T06:18:00.166Z,1007.23
2016-03-08T06:21:09.502Z,1007.25
2016-03-08T06:24:23.057Z,1007.29
2016-03-08T06:27:30.487Z,1007.23
2016-03-08T06:30:45.997Z,1007.41
2016-03-08T06:33:48.771Z,1007.35
2016-03-08T06:36:58.311Z,1007.49
2016-03-08T06:40:08.381Z,1007.21
2016-03-08T06:43:18.795Z,1007.39
2016-03-08T06:46:30.694Z,1007.39
2016-03-08T06:49:46.752Z,1007.37
2016-03-08T06:52:49.697Z,1007.47
2016-03-08T06:55:59.674Z,1007.37
2016-03-08T06:59:09.463Z,1006.26
2016-03-08T07:02:22.159Z,1006.65
2016-03-08T07:05:31.823Z,1006.73
2016-03-08T07:08:45.662Z,1006.81
2016-03-08T07:11:58.311Z,1006.79
2016-03-08T07:15:11.085Z,1006.83
2016-03-08T07:18:23.374Z,1006.87
2016-03-08T07:21:39.602Z,1006.89
2016-03-08T07:24:47.565Z,1006.71
2016-03-08T07:27:51.620Z,1007.03
2016-03-08T07:31:04.378Z,1007.13
2016-03-08T07:34:17.011Z,1007.21
2016-03-08T07:37:29.456Z,1007.05
2016-03-08T07:40:44.045Z,1006.95
2016-03-08T07:43:48.116Z,1006.81
2016-03-08T07:47:01.139Z,1006.91
2016-03-08T07:50:14.194Z,1006.91
2016-03-08T07:53:27.484Z,1006.73
2016-03-08T07:56:43.963Z,1006.71
2016-03-08T07:59:48.563Z,1006.46
2016-03-08T08:03:02.024Z,1006.36
2016-03-08T08:06:15.438Z,1006.22
2016-03-08T08:09:29.259Z,1006.26
2016-03-08T08:12:44.363Z,1006.32
2016-03-08T08:15:50.434Z,1006.06
2016-03-08T08:19:03.442Z,1005.78
2016-03-08T08:22:18.325Z,1005.78
2016-03-08T08:25:33.974Z,1005.5
2016-03-08T08:28:49.485Z,1005.5
2016-03-08T08:32:02.227Z,1005.8
2016-03-08T08:35:13.860Z,1005.88
2016-03-08T08:38:29.337Z,1005.82
2016-03-08T08:41:47.692Z,1006.16
2016-03-08T08:44:53.059Z,1006.59
2016-03-08T08:48:04.145Z,1007.11
2016-03-08T08:51:17.138Z,1007.17
2016-03-08T08:54:27.724Z,1007.03
2016-03-08T08:57:42.688Z,1006.69
2016-03-08T09:00:47.508Z,1006.28
2016-03-08T09:04:01.454Z,1006.52
2016-03-08T09:07:15.556Z,1006.14
2016-03-08T09:10:29.220Z,1005.98
2016-03-08T09:13:47.800Z,1005.92
2016-03-08T09:16:53.636Z,1006.12
2016-03-08T09:20:04.941Z,1006.14
2016-03-08T09:23:16.668Z,1006.02
2016-03-08T09:26:31.130Z,1005.94
2016-03-08T09:29:48.374Z,1006.26
2016-03-08T09:32:54.085Z,1006.38
2016-03-08T09:36:08.593Z,1006.26
2016-03-08T09:39:19.961Z,1006.36
2016-03-08T09:42:31.797Z,1006.28
2016-03-08T09:45:45.495Z,1006.28
2016-03-08T09:48:58.410Z,1006.38
2016-03-08T09:52:09.777Z,1006.67
2016-03-08T09:55:22.176Z,1007.03
2016-03-08T09:58:34.481Z,1007.41
2016-03-08T10:01:47.710Z,1007.63
2016-03-08T10:04:58.234Z,1007.57
2016-03-08T10:08:11.665Z,1007.71
2016-03-08T10:11:23.360Z,1007.81
2016-03-08T10:14:40.728Z,1007.81
2016-03-08T10:17:45.650Z,1007.95
2016-03-08T10:20:59.148Z,1007.91
2016-03-08T10:24:12.629Z,1007.97
2016-03-08T10:27:26.178Z,1007.98
2016-03-08T10:30:43.591Z,1008.2
2016-03-08T10:33:48.425Z,1008.2
2016-03-08T10:37:01.855Z,1008.32
2016-03-08T10:40:12.830Z,1008.3
2016-03-08T10:43:26.213Z,1008.28
2016-03-08T10:46:42.955Z,1008.38
2016-03-08T10:49:47.530Z,1008.34
2016-03-08T10:52:59.429Z,1008.32
2016-03-08T10:56:09.452Z,1008.5
2016-03-08T10:59:22.945Z,1008.32
2016-03-08T11:02:33.390Z,1008.58
2016-03-08T11:05:46.384Z,1008.66
2016-03-08T11:08:59.455Z,1008.6
2016-03-08T11:12:12.604Z,1008.64
2016-03-08T11:15:25.768Z,1008.58
2016-03-08T11:18:41.354Z,1008.6
2016-03-08T11:21:46.052Z,1008.58
2016-03-08T11:24:59.404Z,1008.66
2016-03-08T11:28:13.069Z,1008.68
2016-03-08T11:31:26.109Z,1008.72
2016-03-08T11:34:43.039Z,1008.6
2016-03-08T11:37:47.706Z,1008.64
2016-03-08T11:40:59.183Z,1008.66
2016-03-08T11:44:12.909Z,1008.76
2016-03-08T11:47:26.089Z,1008.64
2016-03-08T11:50:42.846Z,1008.68
2016-03-08T11:53:47.154Z,1008.66
2016-03-08T11:56:59.943Z,1008.66
2016-03-08T12:00:11.342Z,1008.72
2016-03-08T12:03:24.366Z,1008.72
2016-03-08T12:06:39.954Z,1008.7
2016-03-08T12:09:48.137Z,1008.68
2016-03-08T12:12:52.410Z,1008.66
2016-03-08T12:16:05.466Z,1008.7
2016-03-08T12:19:18.521Z,1008.88
2016-03-08T12:22:31.560Z,1008.68
2016-03-08T12:25:46.805Z,1008.78
2016-03-08T12:28:51.189Z,1008.78
2016-03-08T12:32:03.634Z,1008.6
2016-03-08T12:35:16.657Z,1008.84
2016-03-08T12:38:29.446Z,1008.84
2016-03-08T12:41:44.501Z,1008.84
2016-03-08T12:44:48.809Z,1008.84
2016-03-08T12:47:59.035Z,1008.72
2016-03-08T12:51:10.887Z,1008.76
2016-03-08T12:54:24.021Z,1008.78
2016-03-08T12:57:35.342Z,1008.72
2016-03-08T13:00:45.743Z,1008.84
2016-03-08T13:04:00.095Z,1008.86
2016-03-08T13:07:11.117Z,1008.94
2016-03-08T13:10:24.172Z,1008.94
2016-03-08T13:13:35.743Z,1008.9
2016-03-08T13:16:47.504Z,1009.06
2016-03-08T13:20:00.417Z,1008.92
2016-03-08T13:23:12.098Z,1009.14
2016-03-08T13:26:23.403Z,1009.06
2016-03-08T13:29:40.130Z,1009.08
2016-03-08T13:32:48.063Z,1009
2016-03-08T13:35:52.227Z,1008.96
2016-03-08T13:39:02.829Z,1008.96
2016-03-08T13:42:13.742Z,1008.88
2016-03-08T13:45:26.735Z,1008.88
2016-03-08T13:48:40.368Z,1008.94
2016-03-08T13:51:48.407Z,1008.86
2016-03-08T13:54:52.602Z,1008.84
2016-03-08T13:58:05.408Z,1009
2016-03-08T14:01:18.354Z,1008.86
2016-03-08T14:04:29.033Z,1008.92
2016-03-08T14:07:44.415Z,1008.9
2016-03-08T14:10:48.537Z,1008.9
2016-03-08T14:14:01.606Z,1009
2016-03-08T14:17:14.428Z,1009.04
2016-03-08T14:20:27.201Z,1009.12
2016-03-08T14:23:41.647Z,1009.12
2016-03-08T14:26:49.674Z,1009.06
2016-03-08T14:29:52.697Z,1009.2
2016-03-08T14:33:06.298Z,1009.16
2016-03-08T14:36:17.884Z,1009.22
2016-03-08T14:39:30.643Z,1009.22
2016-03-08T14:42:47.104Z,1009.3
2016-03-08T14:45:49.943Z,1009.24
2016-03-08T14:49:04.373Z,1009.26
2016-03-08T14:52:17.178Z,1009.38
2016-03-08T14:55:30.202Z,1009.22
2016-03-08T14:58:46.835Z,1009.16
2016-03-08T15:01:50.955Z,1009.2
2016-03-08T15:05:03.760Z,1009.22
2016-03-08T15:08:16.645Z,1009.3
2016-03-08T15:11:29.278Z,1009.34
2016-03-08T15:14:46.005Z,1009.28
2016-03-08T15:17:49.937Z,1009.38
2016-03-08T15:21:02.617Z,1009.38
2016-03-08T15:24:13.563Z,1009.38
2016-03-08T15:27:23.680Z,1009.48
2016-03-08T15:30:41.658Z,1009.46
2016-03-08T15:33:49.543Z,1009.38
2016-03-08T15:36:53.488Z,1009.46
2016-03-08T15:40:04.606Z,1009.4
2016-03-08T15:43:17.364Z,1009.48
2016-03-08T15:46:26.606Z,1009.5
2016-03-08T15:49:43.067Z,1009.44
2016-03-08T15:52:47.091Z,1009.54
2016-03-08T15:55:59.821Z,1009.52
2016-03-08T15:59:12.829Z,1009.54
2016-03-08T16:02:23.087Z,1009.58
2016-03-08T16:05:33.282Z,1009.58
2016-03-08T16:08:49.856Z,1009.62
2016-03-08T16:11:53.645Z,1009.66
2016-03-08T16:15:04.356Z,1009.7
2016-03-08T16:18:20.942Z,1009.8
2016-03-08T16:21:29.028Z,1009.76
2016-03-08T16:24:45.818Z,1009.72
2016-03-08T16:27:49.513Z,1009.82
2016-03-08T16:30:58.915Z,1009.82
2016-03-08T16:34:11.470Z,1009.97
2016-03-08T16:37:24.134Z,1009.91
2016-03-08T16:40:36.282Z,1009.93
2016-03-08T16:43:49.135Z,1009.89
2016-03-08T16:47:01.786Z,1010.01
2016-03-08T16:50:12.779Z,1010.01
2016-03-08T16:53:22.177Z,1010.19
2016-03-08T16:56:34.608Z,1010.19
2016-03-08T16:59:48.084Z,1010.29
2016-03-08T17:02:51.705Z,1010.31
2016-03-08T17:06:04.071Z,1010.35
2016-03-08T17:09:16.470Z,1010.39
2016-03-08T17:12:26.368Z,1010.45
2016-03-08T17:15:42.456Z,1010.45
2016-03-08T17:18:49.885Z,1010.55
2016-03-08T17:21:53.349Z,1010.61
2016-03-08T17:25:03.232Z,1010.51
2016-03-08T17:28:15.583Z,1010.61
2016-03-08T17:31:27.827Z,1010.63
2016-03-08T17:34:40.882Z,1010.71
2016-03-08T17:37:48.076Z,1010.79
2016-03-08T17:40:50.803Z,1010.73
2016-03-08T17:44:00.189Z,1010.77
2016-03-08T17:47:11.775Z,1010.73
2016-03-08T17:50:22.799Z,1010.87
2016-03-08T17:53:32.667Z,1010.95
2016-03-08T17:56:48.019Z,1011.03
2016-03-08T17:59:50.183Z,1010.91
2016-03-08T18:03:00.865Z,1010.93
2016-03-08T18:06:12.779Z,1010.99
2016-03-08T18:09:24.475Z,1011.01
2016-03-08T18:12:35.779Z,1011.15
2016-03-08T18:15:47.117Z,1011.17
2016-03-08T18:18:56.361Z,1011.17
2016-03-08T18:22:09.354Z,1011.25
2016-03-08T18:25:18.409Z,1011.15
2016-03-08T18:28:30.261Z,1011.19
2016-03-08T18:31:45.471Z,1011.13
2016-03-08T18:34:48.479Z,1011.25
2016-03-08T18:37:59.647Z,1011.25
2016-03-08T18:41:10.030Z,1011.15
2016-03-08T18:44:19.257Z,1011.29
2016-03-08T18:47:31.187Z,1011.35
2016-03-08T18:50:47.289Z,1011.33
2016-03-08T18:53:50.344Z,1011.31
2016-03-08T18:57:00.057Z,1011.43
2016-03-08T19:00:12.097Z,1011.37
2016-03-08T19:03:23.964Z,1011.45
2016-03-08T19:06:32.566Z,1011.49
2016-03-08T19:09:44.808Z,1011.45
2016-03-08T19:12:47.676Z,1011.45
2016-03-08T19:15:56.702Z,1011.59
2016-03-08T19:19:08.304Z,1011.61
2016-03-08T19:22:20.256Z,1011.61
2016-03-08T19:25:31.911Z,1011.64
2016-03-08T19:28:47.236Z,1011.66
2016-03-08T19:31:50.041Z,1011.59
2016-03-08T19:35:01.611Z,1011.64
2016-03-08T19:38:13.398Z,1011.76
2016-03-08T19:41:25.013Z,1011.66
2016-03-08T19:44:34.770Z,1011.61
2016-03-08T19:47:50.512Z,1011.66
2016-03-08T19:50:53.442Z,1011.66
2016-03-08T19:54:04.970Z,1011.72
2016-03-08T19:57:13.931Z,1011.66
2016-03-08T20:00:24.752Z,1011.74
2016-03-08T20:03:36.556Z,1011.72
2016-03-08T20:06:48.189Z,1011.84
2016-03-08T20:09:59.575Z,1011.74
2016-03-08T20:13:11.427Z,1011.82
2016-03-08T20:16:20.607Z,1011.76
2016-03-08T20:19:29.271Z,1011.86
2016-03-08T20:22:44.842Z,1011.84
2016-03-08T20:25:47.756Z,1011.88
2016-03-08T20:28:59.485Z,1011.88
2016-03-08T20:32:08.977Z,1011.92
2016-03-08T20:35:17.611Z,1012
2016-03-08T20:38:27.243Z,1012
2016-03-08T20:41:42.845Z,1011.9
2016-03-08T20:44:49.745Z,1012.1
2016-03-08T20:47:52.737Z,1011.86
2016-03-08T20:51:02.622Z,1011.92
2016-03-08T20:54:13.865Z,1011.96
2016-03-08T20:57:25.701Z,1011.88
2016-03-08T21:00:35.038Z,1011.96
2016-03-08T21:03:50.655Z,1011.94
2016-03-08T21:06:53.702Z,1011.98
2016-03-08T21:10:05.557Z,1011.94
2016-03-08T21:13:15.533Z,1011.86
2016-03-08T21:16:27.495Z,1011.9
2016-03-08T21:19:37.315Z,1011.9
2016-03-08T21:22:49.011Z,1012
2016-03-08T21:26:00.584Z,1011.88
2016-03-08T21:29:12.097Z,1011.98
2016-03-08T21:32:24.183Z,1011.9
2016-03-08T21:35:35.879Z,1011.86
2016-03-08T21:38:49.012Z,1011.84
2016-03-08T21:41:51.988Z,1011.92
2016-03-08T21:45:02.577Z,1011.86
2016-03-08T21:48:16.336Z,1011.9
2016-03-08T21:51:22.219Z,1011.8
2016-03-08T21:54:33.961Z,1011.84
2016-03-08T21:57:48.406Z,1011.68
2016-03-08T22:00:55.430Z,1011.76
2016-03-08T22:03:58.300Z,1011.84
2016-03-08T22:07:09.808Z,1011.82
2016-03-08T22:10:19.395Z,1011.78
2016-03-08T22:13:31.793Z,1011.84
2016-03-08T22:16:40.629Z,1011.86
2016-03-08T22:19:54.606Z,1011.86
2016-03-08T22:22:57.555Z,1011.86
2016-03-08T22:26:09.438Z,1011.88
2016-03-08T22:29:21.055Z,1011.88
2016-03-08T22:32:33.579Z,1011.88
2016-03-08T22:35:40.712Z,1011.84
2016-03-08T22:38:56.126Z,1011.8
2016-03-08T22:41:59.184Z,1011.82
2016-03-08T22:45:10.676Z,1011.86
2016-03-08T22:48:18.965Z,1011.84
2016-03-08T22:51:30.801Z,1011.78
2016-03-08T22:54:42.513Z,1011.74
2016-03-08T22:57:56.817Z,1011.72
2016-03-08T23:00:59.564Z,1011.7
2016-03-08T23:04:11.258Z,1011.72
2016-03-08T23:07:22.969Z,1011.8
2016-03-08T23:10:32.478Z,1011.76
2016-03-08T23:13:42.579Z,1011.8
2016-03-08T23:16:54.790Z,1011.68
2016-03-08T23:20:01.490Z,1011.72
2016-03-08T23:23:04.248Z,1011.76
2016-03-08T23:26:13.287Z,1011.8
2016-03-08T23:29:24.967Z,1011.72
2016-03-08T23:32:36.678Z,1011.96
2016-03-08T23:35:47.435Z,1011.94
2016-03-08T23:38:59.150Z,1011.94
2016-03-08T23:42:10.986Z,1011.94
2016-03-08T23:45:22.885Z,1011.98
2016-03-08T23:48:30.924Z,1011.96
2016-03-08T23:51:39.370Z,1011.84
2016-03-08T23:54:50.361Z,1011.84
2016-03-08T23:58:05.419Z,1011.86
